sensor_id;sensor_type;location;lat;lon;timestamp;P1;durP1;ratioP1;P2;durP2;ratioP2
8268;SDS011;4174;48.304;16.364;2024-03-02T00:03:23;59.40;;;24.60;;
8268;SDS011;4174;48.304;16.364;2024-03-02T00:09:26;56.70;;;24.17;;
8268;SDS011;4174;48.304;16.364;2024-03-02T00:15:40;56.85;;;23.70;;
8268;SDS011;4174;48.304;16.364;2024-03-02T00:21:43;60.05;;;24.10;;
8268;SDS011;4174;48.304;16.364;2024-03-02T00:27:48;60.17;;;24.47;;
8268;SDS011;4174;48.304;16.364;2024-03-02T00:33:52;58.40;;;23.97;;
8268;SDS011;4174;48.304;16.364;2024-03-02T00:39:56;57.40;;;23.55;;
8268;SDS011;4174;48.304;16.364;2024-03-02T00:46:00;57.50;;;24.42;;
8268;SDS011;4174;48.304;16.364;2024-03-02T00:52:04;58.57;;;23.73;;
8268;SDS011;4174;48.304;16.364;2024-03-02T00:58:08;54.47;;;21.80;;
8268;SDS011;4174;48.304;16.364;2024-03-02T01:04:11;48.13;;;21.15;;
8268;SDS011;4174;48.304;16.364;2024-03-02T01:10:15;43.77;;;20.10;;
8268;SDS011;4174;48.304;16.364;2024-03-02T01:16:19;45.53;;;19.97;;
8268;SDS011;4174;48.304;16.364;2024-03-02T01:22:23;44.70;;;19.77;;
8268;SDS011;4174;48.304;16.364;2024-03-02T01:28:26;54.80;;;22.70;;
8268;SDS011;4174;48.304;16.364;2024-03-02T01:34:30;64.55;;;25.27;;
8268;SDS011;4174;48.304;16.364;2024-03-02T01:40:34;63.33;;;25.20;;
8268;SDS011;4174;48.304;16.364;2024-03-02T01:46:37;63.50;;;25.53;;
8268;SDS011;4174;48.304;16.364;2024-03-02T01:52:40;61.40;;;25.17;;
8268;SDS011;4174;48.304;16.364;2024-03-02T01:58:43;65.10;;;25.03;;
8268;SDS011;4174;48.304;16.364;2024-03-02T02:04:47;64.50;;;25.43;;
8268;SDS011;4174;48.304;16.364;2024-03-02T02:10:51;68.30;;;25.90;;
8268;SDS011;4174;48.304;16.364;2024-03-02T02:16:55;64.20;;;25.33;;
8268;SDS011;4174;48.304;16.364;2024-03-02T02:23:00;59.72;;;24.40;;
8268;SDS011;4174;48.304;16.364;2024-03-02T02:29:03;53.72;;;22.48;;
8268;SDS011;4174;48.304;16.364;2024-03-02T02:35:08;52.07;;;21.40;;
8268;SDS011;4174;48.304;16.364;2024-03-02T02:41:12;52.40;;;22.23;;
8268;SDS011;4174;48.304;16.364;2024-03-02T02:47:15;47.47;;;20.90;;
8268;SDS011;4174;48.304;16.364;2024-03-02T02:53:19;55.90;;;22.60;;
8268;SDS011;4174;48.304;16.364;2024-03-02T02:59:23;61.67;;;24.55;;
8268;SDS011;4174;48.304;16.364;2024-03-02T03:05:27;67.12;;;25.10;;
8268;SDS011;4174;48.304;16.364;2024-03-02T03:11:31;68.50;;;25.90;;
8268;SDS011;4174;48.304;16.364;2024-03-02T03:17:35;61.63;;;24.95;;
8268;SDS011;4174;48.304;16.364;2024-03-02T03:23:38;62.30;;;24.95;;
8268;SDS011;4174;48.304;16.364;2024-03-02T03:29:42;65.07;;;24.83;;
8268;SDS011;4174;48.304;16.364;2024-03-02T03:35:47;64.07;;;24.17;;
8268;SDS011;4174;48.304;16.364;2024-03-02T03:41:50;64.82;;;24.42;;
8268;SDS011;4174;48.304;16.364;2024-03-02T03:47:54;66.77;;;24.20;;
8268;SDS011;4174;48.304;16.364;2024-03-02T03:53:58;62.62;;;24.08;;
8268;SDS011;4174;48.304;16.364;2024-03-02T04:00:03;63.20;;;23.90;;
8268;SDS011;4174;48.304;16.364;2024-03-02T04:06:07;59.53;;;22.63;;
8268;SDS011;4174;48.304;16.364;2024-03-02T04:12:11;55.97;;;21.73;;
8268;SDS011;4174;48.304;16.364;2024-03-02T04:18:14;47.62;;;19.77;;
8268;SDS011;4174;48.304;16.364;2024-03-02T04:24:18;55.90;;;22.50;;
8268;SDS011;4174;48.304;16.364;2024-03-02T04:30:22;55.60;;;20.77;;
8268;SDS011;4174;48.304;16.364;2024-03-02T04:36:25;61.40;;;18.27;;
8268;SDS011;4174;48.304;16.364;2024-03-02T04:42:29;60.47;;;16.87;;
8268;SDS011;4174;48.304;16.364;2024-03-02T04:48:33;51.40;;;16.97;;
8268;SDS011;4174;48.304;16.364;2024-03-02T04:54:36;60.77;;;17.33;;
8268;SDS011;4174;48.304;16.364;2024-03-02T05:00:39;62.60;;;17.15;;
8268;SDS011;4174;48.304;16.364;2024-03-02T05:06:42;101.70;;;18.83;;
8268;SDS011;4174;48.304;16.364;2024-03-02T05:12:46;87.03;;;19.20;;
8268;SDS011;4174;48.304;16.364;2024-03-02T05:18:51;87.20;;;18.73;;
8268;SDS011;4174;48.304;16.364;2024-03-02T05:24:54;87.80;;;19.92;;
8268;SDS011;4174;48.304;16.364;2024-03-02T05:30:58;84.07;;;19.03;;
8268;SDS011;4174;48.304;16.364;2024-03-02T05:37:01;97.93;;;18.17;;
8268;SDS011;4174;48.304;16.364;2024-03-02T05:43:06;81.10;;;18.97;;
8268;SDS011;4174;48.304;16.364;2024-03-02T05:49:10;80.53;;;19.80;;
8268;SDS011;4174;48.304;16.364;2024-03-02T05:55:13;88.10;;;19.40;;
8268;SDS011;4174;48.304;16.364;2024-03-02T06:01:17;73.63;;;18.63;;
8268;SDS011;4174;48.304;16.364;2024-03-02T06:07:20;69.43;;;18.50;;
8268;SDS011;4174;48.304;16.364;2024-03-02T06:13:24;63.80;;;18.93;;
8268;SDS011;4174;48.304;16.364;2024-03-02T06:19:28;54.72;;;19.15;;
8268;SDS011;4174;48.304;16.364;2024-03-02T06:25:31;83.17;;;20.90;;
8268;SDS011;4174;48.304;16.364;2024-03-02T06:31:35;67.17;;;19.77;;
8268;SDS011;4174;48.304;16.364;2024-03-02T06:37:39;72.40;;;22.13;;
8268;SDS011;4174;48.304;16.364;2024-03-02T06:43:43;81.17;;;22.13;;
8268;SDS011;4174;48.304;16.364;2024-03-02T06:49:46;80.73;;;23.60;;
8268;SDS011;4174;48.304;16.364;2024-03-02T06:55:50;82.32;;;21.23;;
8268;SDS011;4174;48.304;16.364;2024-03-02T07:01:54;105.40;;;22.50;;
8268;SDS011;4174;48.304;16.364;2024-03-02T07:07:58;110.23;;;23.77;;
8268;SDS011;4174;48.304;16.364;2024-03-02T07:14:01;106.07;;;24.30;;
8268;SDS011;4174;48.304;16.364;2024-03-02T07:20:05;91.47;;;24.60;;
8268;SDS011;4174;48.304;16.364;2024-03-02T07:26:09;93.07;;;24.67;;
8268;SDS011;4174;48.304;16.364;2024-03-02T07:32:14;97.43;;;24.35;;
8268;SDS011;4174;48.304;16.364;2024-03-02T07:38:19;86.70;;;23.40;;
8268;SDS011;4174;48.304;16.364;2024-03-02T07:44:22;79.73;;;24.27;;
8268;SDS011;4174;48.304;16.364;2024-03-02T07:50:26;68.87;;;22.73;;
8268;SDS011;4174;48.304;16.364;2024-03-02T07:56:29;60.27;;;19.43;;
8268;SDS011;4174;48.304;16.364;2024-03-02T08:02:32;68.73;;;21.47;;
8268;SDS011;4174;48.304;16.364;2024-03-02T08:08:36;71.20;;;23.10;;
8268;SDS011;4174;48.304;16.364;2024-03-02T08:14:39;72.27;;;23.37;;
8268;SDS011;4174;48.304;16.364;2024-03-02T08:20:43;64.47;;;21.90;;
8268;SDS011;4174;48.304;16.364;2024-03-02T08:26:46;67.33;;;21.80;;
8268;SDS011;4174;48.304;16.364;2024-03-02T08:32:52;61.90;;;21.37;;
8268;SDS011;4174;48.304;16.364;2024-03-02T08:38:55;51.43;;;18.20;;
8268;SDS011;4174;48.304;16.364;2024-03-02T08:45:01;61.80;;;21.35;;
8268;SDS011;4174;48.304;16.364;2024-03-02T08:51:05;57.33;;;20.23;;
8268;SDS011;4174;48.304;16.364;2024-03-02T08:57:08;64.73;;;21.80;;
8268;SDS011;4174;48.304;16.364;2024-03-02T09:03:12;57.08;;;20.30;;
8268;SDS011;4174;48.304;16.364;2024-03-02T09:09:17;55.90;;;20.27;;
8268;SDS011;4174;48.304;16.364;2024-03-02T09:15:21;66.53;;;22.30;;
8268;SDS011;4174;48.304;16.364;2024-03-02T09:21:25;63.23;;;22.50;;
8268;SDS011;4174;48.304;16.364;2024-03-02T09:27:28;68.68;;;23.73;;
8268;SDS011;4174;48.304;16.364;2024-03-02T09:33:32;47.00;;;18.53;;
8268;SDS011;4174;48.304;16.364;2024-03-02T09:39:36;59.72;;;22.35;;
8268;SDS011;4174;48.304;16.364;2024-03-02T09:45:40;52.08;;;19.75;;
8268;SDS011;4174;48.304;16.364;2024-03-02T09:51:46;58.10;;;21.48;;
8268;SDS011;4174;48.304;16.364;2024-03-02T09:57:49;55.47;;;21.20;;
8268;SDS011;4174;48.304;16.364;2024-03-02T10:03:53;50.87;;;20.47;;
8268;SDS011;4174;48.304;16.364;2024-03-02T10:09:56;56.17;;;21.93;;
8268;SDS011;4174;48.304;16.364;2024-03-02T10:16:04;54.78;;;20.40;;
8268;SDS011;4174;48.304;16.364;2024-03-02T10:22:04;57.25;;;22.08;;
8268;SDS011;4174;48.304;16.364;2024-03-02T10:28:06;55.47;;;21.63;;
8268;SDS011;4174;48.304;16.364;2024-03-02T10:34:09;52.23;;;21.53;;
8268;SDS011;4174;48.304;16.364;2024-03-02T10:40:12;55.20;;;21.05;;
8268;SDS011;4174;48.304;16.364;2024-03-02T10:46:18;61.07;;;24.17;;
8268;SDS011;4174;48.304;16.364;2024-03-02T10:52:21;61.55;;;24.73;;
8268;SDS011;4174;48.304;16.364;2024-03-02T10:58:25;54.20;;;21.10;;
8268;SDS011;4174;48.304;16.364;2024-03-02T11:04:29;56.27;;;23.23;;
8268;SDS011;4174;48.304;16.364;2024-03-02T11:10:34;56.13;;;23.53;;
8268;SDS011;4174;48.304;16.364;2024-03-02T11:16:37;63.08;;;24.45;;
8268;SDS011;4174;48.304;16.364;2024-03-02T11:22:40;57.23;;;23.90;;
8268;SDS011;4174;48.304;16.364;2024-03-02T11:28:43;55.00;;;22.37;;
8268;SDS011;4174;48.304;16.364;2024-03-02T11:34:47;51.22;;;22.73;;
8268;SDS011;4174;48.304;16.364;2024-03-02T11:40:49;55.20;;;21.98;;
8268;SDS011;4174;48.304;16.364;2024-03-02T11:46:58;51.67;;;22.13;;
8268;SDS011;4174;48.304;16.364;2024-03-02T11:53:01;46.67;;;21.27;;
8268;SDS011;4174;48.304;16.364;2024-03-02T11:59:05;48.17;;;21.90;;
8268;SDS011;4174;48.304;16.364;2024-03-02T12:05:09;45.22;;;19.92;;
8268;SDS011;4174;48.304;16.364;2024-03-02T12:11:13;46.55;;;21.40;;
8268;SDS011;4174;48.304;16.364;2024-03-02T12:17:16;42.27;;;19.23;;
8268;SDS011;4174;48.304;16.364;2024-03-02T12:23:21;45.03;;;20.10;;
8268;SDS011;4174;48.304;16.364;2024-03-02T12:29:25;43.38;;;19.23;;
8268;SDS011;4174;48.304;16.364;2024-03-02T12:35:28;41.37;;;18.62;;
8268;SDS011;4174;48.304;16.364;2024-03-02T12:41:31;42.20;;;18.63;;
8268;SDS011;4174;48.304;16.364;2024-03-02T12:47:35;41.13;;;18.03;;
8268;SDS011;4174;48.304;16.364;2024-03-02T12:53:38;41.60;;;18.63;;
8268;SDS011;4174;48.304;16.364;2024-03-02T12:59:44;40.20;;;18.13;;
8268;SDS011;4174;48.304;16.364;2024-03-02T13:05:48;41.03;;;18.23;;
8268;SDS011;4174;48.304;16.364;2024-03-02T13:11:49;40.00;;;17.73;;
8268;SDS011;4174;48.304;16.364;2024-03-02T13:17:53;39.97;;;18.17;;
8268;SDS011;4174;48.304;16.364;2024-03-02T13:23:57;39.57;;;17.87;;
8268;SDS011;4174;48.304;16.364;2024-03-02T13:30:01;39.75;;;18.05;;
8268;SDS011;4174;48.304;16.364;2024-03-02T13:36:04;40.25;;;17.50;;
8268;SDS011;4174;48.304;16.364;2024-03-02T13:42:10;37.35;;;16.90;;
8268;SDS011;4174;48.304;16.364;2024-03-02T13:48:13;40.63;;;17.97;;
8268;SDS011;4174;48.304;16.364;2024-03-02T13:54:17;42.25;;;18.27;;
8268;SDS011;4174;48.304;16.364;2024-03-02T14:00:21;40.03;;;18.85;;
8268;SDS011;4174;48.304;16.364;2024-03-02T14:06:25;40.47;;;18.20;;
8268;SDS011;4174;48.304;16.364;2024-03-02T14:12:29;39.23;;;17.37;;
8268;SDS011;4174;48.304;16.364;2024-03-02T14:18:32;40.63;;;17.73;;
8268;SDS011;4174;48.304;16.364;2024-03-02T14:24:36;42.17;;;19.13;;
8268;SDS011;4174;48.304;16.364;2024-03-02T14:30:40;40.75;;;18.48;;
8268;SDS011;4174;48.304;16.364;2024-03-02T14:36:44;43.83;;;20.53;;
8268;SDS011;4174;48.304;16.364;2024-03-02T14:42:48;46.97;;;21.77;;
8268;SDS011;4174;48.304;16.364;2024-03-02T14:48:51;46.70;;;19.58;;
8268;SDS011;4174;48.304;16.364;2024-03-02T14:54:55;43.27;;;19.37;;
8268;SDS011;4174;48.304;16.364;2024-03-02T15:00:59;43.67;;;20.62;;
8268;SDS011;4174;48.304;16.364;2024-03-02T15:07:03;47.63;;;19.43;;
8268;SDS011;4174;48.304;16.364;2024-03-02T15:13:07;47.50;;;20.17;;
8268;SDS011;4174;48.304;16.364;2024-03-02T15:19:11;44.20;;;18.15;;
8268;SDS011;4174;48.304;16.364;2024-03-02T15:25:15;43.42;;;19.37;;
8268;SDS011;4174;48.304;16.364;2024-03-02T15:31:19;42.93;;;20.00;;
8268;SDS011;4174;48.304;16.364;2024-03-02T15:37:23;43.87;;;19.20;;
8268;SDS011;4174;48.304;16.364;2024-03-02T15:43:27;42.93;;;18.83;;
8268;SDS011;4174;48.304;16.364;2024-03-02T15:49:30;39.28;;;17.77;;
8268;SDS011;4174;48.304;16.364;2024-03-02T15:55:34;45.23;;;19.07;;
8268;SDS011;4174;48.304;16.364;2024-03-02T16:01:37;42.73;;;18.30;;
8268;SDS011;4174;48.304;16.364;2024-03-02T16:07:41;42.33;;;18.60;;
8268;SDS011;4174;48.304;16.364;2024-03-02T16:13:46;39.55;;;17.15;;
8268;SDS011;4174;48.304;16.364;2024-03-02T16:19:50;40.25;;;17.17;;
8268;SDS011;4174;48.304;16.364;2024-03-02T16:25:54;41.30;;;17.50;;
8268;SDS011;4174;48.304;16.364;2024-03-02T16:31:58;34.88;;;15.45;;
8268;SDS011;4174;48.304;16.364;2024-03-02T16:38:02;33.93;;;14.90;;
8268;SDS011;4174;48.304;16.364;2024-03-02T16:44:06;33.58;;;15.27;;
8268;SDS011;4174;48.304;16.364;2024-03-02T16:50:10;32.40;;;15.63;;
8268;SDS011;4174;48.304;16.364;2024-03-02T16:56:13;30.62;;;14.20;;
8268;SDS011;4174;48.304;16.364;2024-03-02T17:02:18;35.38;;;15.82;;
8268;SDS011;4174;48.304;16.364;2024-03-02T17:08:21;32.33;;;15.07;;
8268;SDS011;4174;48.304;16.364;2024-03-02T17:14:27;31.75;;;14.57;;
8268;SDS011;4174;48.304;16.364;2024-03-02T17:20:30;33.60;;;14.27;;
8268;SDS011;4174;48.304;16.364;2024-03-02T17:26:34;34.67;;;15.17;;
8268;SDS011;4174;48.304;16.364;2024-03-02T17:32:38;33.20;;;14.85;;
8268;SDS011;4174;48.304;16.364;2024-03-02T17:38:41;36.20;;;15.68;;
8268;SDS011;4174;48.304;16.364;2024-03-02T17:44:46;34.77;;;15.43;;
8268;SDS011;4174;48.304;16.364;2024-03-02T17:50:49;38.83;;;15.63;;
8268;SDS011;4174;48.304;16.364;2024-03-02T17:56:52;36.40;;;15.40;;
8268;SDS011;4174;48.304;16.364;2024-03-02T18:02:56;37.22;;;15.35;;
8268;SDS011;4174;48.304;16.364;2024-03-02T18:09:00;35.50;;;16.03;;
8268;SDS011;4174;48.304;16.364;2024-03-02T18:15:05;33.17;;;13.77;;
8268;SDS011;4174;48.304;16.364;2024-03-02T18:21:10;33.38;;;14.98;;
8268;SDS011;4174;48.304;16.364;2024-03-02T18:27:14;34.77;;;14.93;;
8268;SDS011;4174;48.304;16.364;2024-03-02T18:33:18;35.20;;;15.02;;
8268;SDS011;4174;48.304;16.364;2024-03-02T18:39:22;32.92;;;14.15;;
8268;SDS011;4174;48.304;16.364;2024-03-02T18:45:25;31.07;;;13.60;;
8268;SDS011;4174;48.304;16.364;2024-03-02T18:51:30;31.33;;;14.18;;
8268;SDS011;4174;48.304;16.364;2024-03-02T18:57:34;31.87;;;13.32;;
8268;SDS011;4174;48.304;16.364;2024-03-02T19:03:37;31.53;;;13.83;;
8268;SDS011;4174;48.304;16.364;2024-03-02T19:09:41;31.50;;;13.98;;
8268;SDS011;4174;48.304;16.364;2024-03-02T19:15:45;31.37;;;13.70;;
8268;SDS011;4174;48.304;16.364;2024-03-02T19:21:49;30.47;;;13.17;;
8268;SDS011;4174;48.304;16.364;2024-03-02T19:27:53;31.23;;;13.27;;
8268;SDS011;4174;48.304;16.364;2024-03-02T19:33:56;27.93;;;12.90;;
8268;SDS011;4174;48.304;16.364;2024-03-02T19:40:00;29.70;;;13.03;;
8268;SDS011;4174;48.304;16.364;2024-03-02T19:46:03;30.50;;;13.33;;
8268;SDS011;4174;48.304;16.364;2024-03-02T19:52:07;31.87;;;13.57;;
8268;SDS011;4174;48.304;16.364;2024-03-02T19:58:11;31.17;;;13.80;;
8268;SDS011;4174;48.304;16.364;2024-03-02T20:04:15;33.42;;;15.13;;
8268;SDS011;4174;48.304;16.364;2024-03-02T20:10:18;33.17;;;14.37;;
8268;SDS011;4174;48.304;16.364;2024-03-02T20:16:22;31.02;;;14.23;;
8268;SDS011;4174;48.304;16.364;2024-03-02T20:22:26;31.67;;;14.00;;
8268;SDS011;4174;48.304;16.364;2024-03-02T20:28:29;31.83;;;14.03;;
8268;SDS011;4174;48.304;16.364;2024-03-02T20:34:32;35.15;;;14.00;;
8268;SDS011;4174;48.304;16.364;2024-03-02T20:40:36;32.40;;;14.47;;
8268;SDS011;4174;48.304;16.364;2024-03-02T20:46:40;37.60;;;15.32;;
8268;SDS011;4174;48.304;16.364;2024-03-02T20:52:42;40.00;;;16.20;;
8268;SDS011;4174;48.304;16.364;2024-03-02T20:58:47;39.92;;;15.88;;
8268;SDS011;4174;48.304;16.364;2024-03-02T21:04:50;37.17;;;14.93;;
8268;SDS011;4174;48.304;16.364;2024-03-02T21:10:54;35.90;;;15.05;;
8268;SDS011;4174;48.304;16.364;2024-03-02T21:16:58;33.23;;;14.30;;
8268;SDS011;4174;48.304;16.364;2024-03-02T21:23:01;33.97;;;14.10;;
8268;SDS011;4174;48.304;16.364;2024-03-02T21:29:06;33.80;;;14.18;;
8268;SDS011;4174;48.304;16.364;2024-03-02T21:35:08;36.00;;;14.30;;
8268;SDS011;4174;48.304;16.364;2024-03-02T21:41:12;36.83;;;14.60;;
8268;SDS011;4174;48.304;16.364;2024-03-02T21:47:16;37.92;;;14.68;;
8268;SDS011;4174;48.304;16.364;2024-03-02T21:53:20;39.60;;;15.10;;
8268;SDS011;4174;48.304;16.364;2024-03-02T21:59:24;37.85;;;15.13;;
8268;SDS011;4174;48.304;16.364;2024-03-02T22:05:27;40.97;;;15.37;;
8268;SDS011;4174;48.304;16.364;2024-03-02T22:11:30;39.10;;;15.32;;
8268;SDS011;4174;48.304;16.364;2024-03-02T22:17:34;42.53;;;16.47;;
8268;SDS011;4174;48.304;16.364;2024-03-02T22:23:39;39.77;;;15.63;;
8268;SDS011;4174;48.304;16.364;2024-03-02T22:29:42;40.85;;;15.23;;
8268;SDS011;4174;48.304;16.364;2024-03-02T22:35:46;46.13;;;16.65;;
8268;SDS011;4174;48.304;16.364;2024-03-02T22:41:50;45.17;;;16.73;;
8268;SDS011;4174;48.304;16.364;2024-03-02T22:47:54;43.30;;;16.15;;
8268;SDS011;4174;48.304;16.364;2024-03-02T22:53:58;45.78;;;17.33;;
8268;SDS011;4174;48.304;16.364;2024-03-02T23:00:02;47.80;;;17.70;;
8268;SDS011;4174;48.304;16.364;2024-03-02T23:06:11;47.77;;;17.93;;
8268;SDS011;4174;48.304;16.364;2024-03-02T23:12:14;49.37;;;18.10;;
8268;SDS011;4174;48.304;16.364;2024-03-02T23:18:18;50.50;;;18.95;;
8268;SDS011;4174;48.304;16.364;2024-03-02T23:24:22;43.37;;;15.63;;
8268;SDS011;4174;48.304;16.364;2024-03-02T23:30:26;49.08;;;18.25;;
8268;SDS011;4174;48.304;16.364;2024-03-02T23:36:30;49.87;;;18.33;;
8268;SDS011;4174;48.304;16.364;2024-03-02T23:42:34;45.07;;;17.20;;
8268;SDS011;4174;48.304;16.364;2024-03-02T23:48:38;45.75;;;17.75;;
8268;SDS011;4174;48.304;16.364;2024-03-02T23:54:42;45.00;;;17.33;;
